Piedmont, Ohio
Current Conditions -  °F | °C
As of 12:53 AM on Thursday 23 Oct 2014 (Local Time) from KPHD Reporting Station
Broken Clouds Broken Clouds  
Wind Chill: 43°   Ceiling: 4300
Heat Index: 43°   Visibility: 7mi
Dew Point: 41°   Wind: 3mph
Humidity: 93%   Direction: 320°NW
Pressure: 30.2"   Gusts: NA
Location:  40.19°N, 81.2°W
Report Text: KPHD 230453Z AUTO 32003KT 7SM SCT024 BKN043 06/05 A3020 RMK AO2 SLP232 T00610050 401110056
Loading
Personal Weather Stations






























Interactive Weather Map
Tropical Storm Tracking
New forecast layout! Learn more

10-Day Weather Forecast

Advertisements
Track Severe Weather on mobile